sensor_id;sensor_type;location;lat;lon;timestamp;temperature;humidity
10572;DHT22;5334;48.928;12.704;2022-08-19T00:01:23;21.10;99.90
10572;DHT22;5334;48.928;12.704;2022-08-19T00:03:49;21.10;99.90
10572;DHT22;5334;48.928;12.704;2022-08-19T00:06:15;21.00;99.90
10572;DHT22;5334;48.928;12.704;2022-08-19T00:08:41;21.00;99.90
10572;DHT22;5334;48.928;12.704;2022-08-19T00:11:06;21.00;99.90
10572;DHT22;5334;48.928;12.704;2022-08-19T00:13:33;20.90;99.90
10572;DHT22;5334;48.928;12.704;2022-08-19T00:15:58;20.80;99.90
10572;DHT22;5334;48.928;12.704;2022-08-19T00:18:26;20.80;99.90
10572;DHT22;5334;48.928;12.704;2022-08-19T00:20:52;20.80;99.90
10572;DHT22;5334;48.928;12.704;2022-08-19T00:23:18;20.80;99.90
10572;DHT22;5334;48.928;12.704;2022-08-19T00:25:44;20.70;99.90
10572;DHT22;5334;48.928;12.704;2022-08-19T00:28:10;20.70;99.90
10572;DHT22;5334;48.928;12.704;2022-08-19T00:30:36;20.60;99.90
10572;DHT22;5334;48.928;12.704;2022-08-19T00:33:02;20.60;99.90
10572;DHT22;5334;48.928;12.704;2022-08-19T00:35:28;20.60;99.90
10572;DHT22;5334;48.928;12.704;2022-08-19T00:37:54;20.60;99.90
10572;DHT22;5334;48.928;12.704;2022-08-19T00:40:20;20.60;99.90
10572;DHT22;5334;48.928;12.704;2022-08-19T00:42:46;20.50;99.90
10572;DHT22;5334;48.928;12.704;2022-08-19T00:45:16;20.60;99.90
10572;DHT22;5334;48.928;12.704;2022-08-19T00:47:43;20.60;99.90
10572;DHT22;5334;48.928;12.704;2022-08-19T00:50:11;20.60;99.90
10572;DHT22;5334;48.928;12.704;2022-08-19T00:52:46;20.60;99.90
10572;DHT22;5334;48.928;12.704;2022-08-19T00:55:19;20.60;99.90
10572;DHT22;5334;48.928;12.704;2022-08-19T00:57:55;20.70;99.90
10572;DHT22;5334;48.928;12.704;2022-08-19T01:00:23;20.80;99.90
10572;DHT22;5334;48.928;12.704;2022-08-19T01:02:50;20.80;99.90
10572;DHT22;5334;48.928;12.704;2022-08-19T01:05:27;20.90;99.90
10572;DHT22;5334;48.928;12.704;2022-08-19T01:07:55;20.90;99.90
10572;DHT22;5334;48.928;12.704;2022-08-19T01:10:25;21.00;99.90
10572;DHT22;5334;48.928;12.704;2022-08-19T01:12:51;21.00;99.90
10572;DHT22;5334;48.928;12.704;2022-08-19T01:15:22;21.00;99.90
10572;DHT22;5334;48.928;12.704;2022-08-19T01:17:49;21.00;99.90
10572;DHT22;5334;48.928;12.704;2022-08-19T01:20:20;21.00;99.90
10572;DHT22;5334;48.928;12.704;2022-08-19T01:22:55;21.00;99.90
10572;DHT22;5334;48.928;12.704;2022-08-19T01:25:28;21.00;99.90
10572;DHT22;5334;48.928;12.704;2022-08-19T01:27:55;20.90;99.90
10572;DHT22;5334;48.928;12.704;2022-08-19T01:30:28;21.00;99.90
10572;DHT22;5334;48.928;12.704;2022-08-19T01:32:55;21.00;99.90
10572;DHT22;5334;48.928;12.704;2022-08-19T01:35:22;21.10;99.90
10572;DHT22;5334;48.928;12.704;2022-08-19T01:37:56;21.10;99.90
10572;DHT22;5334;48.928;12.704;2022-08-19T01:40:24;21.10;99.90
10572;DHT22;5334;48.928;12.704;2022-08-19T01:42:52;21.10;99.90
10572;DHT22;5334;48.928;12.704;2022-08-19T01:45:20;21.10;99.90
10572;DHT22;5334;48.928;12.704;2022-08-19T01:47:46;21.10;99.90
10572;DHT22;5334;48.928;12.704;2022-08-19T01:50:12;21.10;99.90
10572;DHT22;5334;48.928;12.704;2022-08-19T01:52:40;21.20;99.90
10572;DHT22;5334;48.928;12.704;2022-08-19T01:55:09;21.20;99.90
10572;DHT22;5334;48.928;12.704;2022-08-19T01:57:35;21.20;99.90
10572;DHT22;5334;48.928;12.704;2022-08-19T02:00:03;21.20;99.90
10572;DHT22;5334;48.928;12.704;2022-08-19T02:02:30;21.30;99.90
10572;DHT22;5334;48.928;12.704;2022-08-19T02:04:56;21.30;99.90
10572;DHT22;5334;48.928;12.704;2022-08-19T02:07:22;21.30;99.90
10572;DHT22;5334;48.928;12.704;2022-08-19T02:09:48;21.20;99.90
10572;DHT22;5334;48.928;12.704;2022-08-19T02:12:14;21.20;99.90
10572;DHT22;5334;48.928;12.704;2022-08-19T02:14:40;21.20;99.90
10572;DHT22;5334;48.928;12.704;2022-08-19T02:17:06;21.20;99.90
10572;DHT22;5334;48.928;12.704;2022-08-19T02:19:32;21.20;99.90
10572;DHT22;5334;48.928;12.704;2022-08-19T02:21:58;21.20;99.90
10572;DHT22;5334;48.928;12.704;2022-08-19T02:24:24;21.20;99.90
10572;DHT22;5334;48.928;12.704;2022-08-19T02:26:50;21.30;99.90
10572;DHT22;5334;48.928;12.704;2022-08-19T02:29:16;21.30;99.90
10572;DHT22;5334;48.928;12.704;2022-08-19T02:31:42;21.30;99.90
10572;DHT22;5334;48.928;12.704;2022-08-19T02:34:08;21.30;99.90
10572;DHT22;5334;48.928;12.704;2022-08-19T02:36:34;21.30;99.90
10572;DHT22;5334;48.928;12.704;2022-08-19T02:39:00;21.30;99.90
10572;DHT22;5334;48.928;12.704;2022-08-19T02:41:28;21.30;99.90
10572;DHT22;5334;48.928;12.704;2022-08-19T02:43:57;21.40;99.90
10572;DHT22;5334;48.928;12.704;2022-08-19T02:46:27;21.40;99.90
10572;DHT22;5334;48.928;12.704;2022-08-19T02:48:57;21.30;99.90
10572;DHT22;5334;48.928;12.704;2022-08-19T02:51:29;21.10;99.90
10572;DHT22;5334;48.928;12.704;2022-08-19T02:53:54;21.10;99.90
10572;DHT22;5334;48.928;12.704;2022-08-19T02:56:21;21.10;99.90
10572;DHT22;5334;48.928;12.704;2022-08-19T02:58:47;21.00;99.90
10572;DHT22;5334;48.928;12.704;2022-08-19T03:01:32;21.00;99.90
10572;DHT22;5334;48.928;12.704;2022-08-19T03:04:00;21.00;99.90
10572;DHT22;5334;48.928;12.704;2022-08-19T03:06:27;21.10;99.90
10572;DHT22;5334;48.928;12.704;2022-08-19T03:08:53;21.10;99.90
10572;DHT22;5334;48.928;12.704;2022-08-19T03:11:22;21.00;99.90
10572;DHT22;5334;48.928;12.704;2022-08-19T03:13:49;20.90;99.90
10572;DHT22;5334;48.928;12.704;2022-08-19T03:16:17;20.80;99.90
10572;DHT22;5334;48.928;12.704;2022-08-19T03:18:43;20.70;99.90
10572;DHT22;5334;48.928;12.704;2022-08-19T03:21:09;20.60;99.90
10572;DHT22;5334;48.928;12.704;2022-08-19T03:23:35;20.60;99.90
10572;DHT22;5334;48.928;12.704;2022-08-19T03:26:05;20.60;99.90
10572;DHT22;5334;48.928;12.704;2022-08-19T03:28:31;20.60;99.90
10572;DHT22;5334;48.928;12.704;2022-08-19T03:31:00;20.60;99.90
10572;DHT22;5334;48.928;12.704;2022-08-19T03:33:28;20.60;99.90
10572;DHT22;5334;48.928;12.704;2022-08-19T03:36:12;20.60;99.90
10572;DHT22;5334;48.928;12.704;2022-08-19T03:38:41;20.60;99.90
10572;DHT22;5334;48.928;12.704;2022-08-19T03:41:09;20.70;99.90
10572;DHT22;5334;48.928;12.704;2022-08-19T03:43:39;20.80;99.90
10572;DHT22;5334;48.928;12.704;2022-08-19T03:46:09;20.80;99.90
10572;DHT22;5334;48.928;12.704;2022-08-19T03:48:37;20.90;99.90
10572;DHT22;5334;48.928;12.704;2022-08-19T03:51:05;20.90;99.90
10572;DHT22;5334;48.928;12.704;2022-08-19T03:53:32;21.00;99.90
10572;DHT22;5334;48.928;12.704;2022-08-19T03:55:58;20.90;99.90
10572;DHT22;5334;48.928;12.704;2022-08-19T03:58:30;20.90;99.90
10572;DHT22;5334;48.928;12.704;2022-08-19T04:00:57;20.90;99.90
10572;DHT22;5334;48.928;12.704;2022-08-19T04:03:24;20.90;99.90
10572;DHT22;5334;48.928;12.704;2022-08-19T04:05:50;20.90;99.90
10572;DHT22;5334;48.928;12.704;2022-08-19T04:08:16;21.00;99.90
10572;DHT22;5334;48.928;12.704;2022-08-19T04:10:46;20.90;99.90
10572;DHT22;5334;48.928;12.704;2022-08-19T04:13:12;20.90;99.90
10572;DHT22;5334;48.928;12.704;2022-08-19T04:15:40;20.90;99.90
10572;DHT22;5334;48.928;12.704;2022-08-19T04:18:08;20.90;99.90
10572;DHT22;5334;48.928;12.704;2022-08-19T04:20:45;21.00;99.90
10572;DHT22;5334;48.928;12.704;2022-08-19T04:23:12;21.00;99.90
10572;DHT22;5334;48.928;12.704;2022-08-19T04:25:41;20.90;99.90
10572;DHT22;5334;48.928;12.704;2022-08-19T04:28:09;20.90;99.90
10572;DHT22;5334;48.928;12.704;2022-08-19T04:30:46;21.00;99.90
10572;DHT22;5334;48.928;12.704;2022-08-19T04:33:14;21.00;99.90
10572;DHT22;5334;48.928;12.704;2022-08-19T04:35:43;21.00;99.90
10572;DHT22;5334;48.928;12.704;2022-08-19T04:38:10;21.00;99.90
10572;DHT22;5334;48.928;12.704;2022-08-19T04:40:44;21.00;99.90
10572;DHT22;5334;48.928;12.704;2022-08-19T04:43:28;21.00;99.90
10572;DHT22;5334;48.928;12.704;2022-08-19T04:45:54;21.00;99.90
10572;DHT22;5334;48.928;12.704;2022-08-19T04:48:21;21.00;99.90
10572;DHT22;5334;48.928;12.704;2022-08-19T04:50:53;21.00;99.90
10572;DHT22;5334;48.928;12.704;2022-08-19T04:53:29;21.00;99.90
10572;DHT22;5334;48.928;12.704;2022-08-19T04:55:56;21.10;99.90
10572;DHT22;5334;48.928;12.704;2022-08-19T04:58:23;21.10;99.90
10572;DHT22;5334;48.928;12.704;2022-08-19T05:00:49;21.10;99.90
10572;DHT22;5334;48.928;12.704;2022-08-19T05:03:15;21.10;99.90
10572;DHT22;5334;48.928;12.704;2022-08-19T05:05:43;21.10;99.90
10572;DHT22;5334;48.928;12.704;2022-08-19T05:08:10;21.20;99.90
10572;DHT22;5334;48.928;12.704;2022-08-19T05:10:37;21.20;99.90
10572;DHT22;5334;48.928;12.704;2022-08-19T05:13:03;21.30;99.90
10572;DHT22;5334;48.928;12.704;2022-08-19T05:15:30;21.40;99.90
10572;DHT22;5334;48.928;12.704;2022-08-19T05:17:55;21.40;99.90
10572;DHT22;5334;48.928;12.704;2022-08-19T05:20:39;21.50;99.90
10572;DHT22;5334;48.928;12.704;2022-08-19T05:23:23;21.50;99.90
10572;DHT22;5334;48.928;12.704;2022-08-19T05:25:50;21.40;99.90
10572;DHT22;5334;48.928;12.704;2022-08-19T05:28:17;21.40;99.90
10572;DHT22;5334;48.928;12.704;2022-08-19T05:30:44;21.40;99.90
10572;DHT22;5334;48.928;12.704;2022-08-19T05:33:10;21.30;99.90
10572;DHT22;5334;48.928;12.704;2022-08-19T05:35:38;21.30;99.90
10572;DHT22;5334;48.928;12.704;2022-08-19T05:38:03;21.30;99.90
10572;DHT22;5334;48.928;12.704;2022-08-19T05:40:30;21.40;99.90
10572;DHT22;5334;48.928;12.704;2022-08-19T05:42:55;21.40;99.90
10572;DHT22;5334;48.928;12.704;2022-08-19T05:45:21;21.40;99.90
10572;DHT22;5334;48.928;12.704;2022-08-19T05:47:47;21.40;99.90
10572;DHT22;5334;48.928;12.704;2022-08-19T05:50:13;21.50;99.90
10572;DHT22;5334;48.928;12.704;2022-08-19T05:52:39;21.40;99.90
10572;DHT22;5334;48.928;12.704;2022-08-19T05:55:05;21.40;99.90
10572;DHT22;5334;48.928;12.704;2022-08-19T05:57:31;21.40;99.90
10572;DHT22;5334;48.928;12.704;2022-08-19T05:59:57;21.40;99.90
10572;DHT22;5334;48.928;12.704;2022-08-19T06:02:29;21.40;99.90
10572;DHT22;5334;48.928;12.704;2022-08-19T06:04:55;21.40;99.90
10572;DHT22;5334;48.928;12.704;2022-08-19T06:07:21;21.40;99.90
10572;DHT22;5334;48.928;12.704;2022-08-19T06:09:47;21.40;99.90
10572;DHT22;5334;48.928;12.704;2022-08-19T06:12:13;21.40;99.90
10572;DHT22;5334;48.928;12.704;2022-08-19T06:14:38;21.40;99.90
10572;DHT22;5334;48.928;12.704;2022-08-19T06:17:05;21.40;99.90
10572;DHT22;5334;48.928;12.704;2022-08-19T06:19:30;21.60;99.90
10572;DHT22;5334;48.928;12.704;2022-08-19T06:21:58;21.50;99.90
10572;DHT22;5334;48.928;12.704;2022-08-19T06:24:26;21.50;99.90
10572;DHT22;5334;48.928;12.704;2022-08-19T06:26:54;21.50;99.90
10572;DHT22;5334;48.928;12.704;2022-08-19T06:29:23;21.50;99.90
10572;DHT22;5334;48.928;12.704;2022-08-19T06:31:51;21.50;99.90
10572;DHT22;5334;48.928;12.704;2022-08-19T06:34:18;21.50;99.90
10572;DHT22;5334;48.928;12.704;2022-08-19T06:36:47;21.50;99.90
10572;DHT22;5334;48.928;12.704;2022-08-19T06:39:21;21.50;99.90
10572;DHT22;5334;48.928;12.704;2022-08-19T06:41:49;21.60;99.90
10572;DHT22;5334;48.928;12.704;2022-08-19T06:44:15;21.50;99.90
10572;DHT22;5334;48.928;12.704;2022-08-19T06:46:42;21.50;99.90
10572;DHT22;5334;48.928;12.704;2022-08-19T06:49:08;21.50;99.90
10572;DHT22;5334;48.928;12.704;2022-08-19T06:51:46;21.60;99.90
10572;DHT22;5334;48.928;12.704;2022-08-19T06:54:14;21.60;99.90
10572;DHT22;5334;48.928;12.704;2022-08-19T06:56:39;21.70;99.90
10572;DHT22;5334;48.928;12.704;2022-08-19T06:59:12;21.80;99.90
10572;DHT22;5334;48.928;12.704;2022-08-19T07:01:49;21.80;99.90
10572;DHT22;5334;48.928;12.704;2022-08-19T07:04:26;21.80;99.90
10572;DHT22;5334;48.928;12.704;2022-08-19T07:07:11;21.90;99.90
10572;DHT22;5334;48.928;12.704;2022-08-19T07:09:43;21.90;99.90
10572;DHT22;5334;48.928;12.704;2022-08-19T07:12:11;21.90;99.90
10572;DHT22;5334;48.928;12.704;2022-08-19T07:14:39;21.90;99.90
10572;DHT22;5334;48.928;12.704;2022-08-19T07:17:08;21.80;99.90
10572;DHT22;5334;48.928;12.704;2022-08-19T07:19:35;21.80;99.90
10572;DHT22;5334;48.928;12.704;2022-08-19T07:22:03;21.70;99.90
10572;DHT22;5334;48.928;12.704;2022-08-19T07:24:30;21.70;99.90
10572;DHT22;5334;48.928;12.704;2022-08-19T07:26:59;21.80;99.90
10572;DHT22;5334;48.928;12.704;2022-08-19T07:29:30;21.90;99.90
10572;DHT22;5334;48.928;12.704;2022-08-19T07:31:57;21.90;99.90
10572;DHT22;5334;48.928;12.704;2022-08-19T07:34:24;22.00;99.90
10572;DHT22;5334;48.928;12.704;2022-08-19T07:36:51;22.10;99.90
10572;DHT22;5334;48.928;12.704;2022-08-19T07:39:20;22.20;99.90
10572;DHT22;5334;48.928;12.704;2022-08-19T07:41:48;22.30;99.90
10572;DHT22;5334;48.928;12.704;2022-08-19T07:44:14;22.40;99.90
10572;DHT22;5334;48.928;12.704;2022-08-19T07:46:44;22.40;99.90
10572;DHT22;5334;48.928;12.704;2022-08-19T07:49:13;22.40;99.90
10572;DHT22;5334;48.928;12.704;2022-08-19T07:51:52;22.50;99.90
10572;DHT22;5334;48.928;12.704;2022-08-19T07:54:19;22.50;99.90
10572;DHT22;5334;48.928;12.704;2022-08-19T07:56:45;22.60;99.90
10572;DHT22;5334;48.928;12.704;2022-08-19T07:59:11;22.60;99.90
10572;DHT22;5334;48.928;12.704;2022-08-19T08:01:38;22.60;99.90
10572;DHT22;5334;48.928;12.704;2022-08-19T08:04:06;22.60;99.90
10572;DHT22;5334;48.928;12.704;2022-08-19T08:06:50;22.70;99.90
10572;DHT22;5334;48.928;12.704;2022-08-19T08:09:37;22.70;99.90
10572;DHT22;5334;48.928;12.704;2022-08-19T08:12:06;22.70;99.90
10572;DHT22;5334;48.928;12.704;2022-08-19T08:14:40;22.70;99.90
10572;DHT22;5334;48.928;12.704;2022-08-19T08:17:08;22.70;99.90
10572;DHT22;5334;48.928;12.704;2022-08-19T08:19:35;22.70;99.90
10572;DHT22;5334;48.928;12.704;2022-08-19T08:22:02;22.70;99.90
10572;DHT22;5334;48.928;12.704;2022-08-19T08:24:30;22.70;99.90
10572;DHT22;5334;48.928;12.704;2022-08-19T08:26:57;22.70;99.90
10572;DHT22;5334;48.928;12.704;2022-08-19T08:29:25;22.70;99.90
10572;DHT22;5334;48.928;12.704;2022-08-19T08:31:51;22.80;99.90
10572;DHT22;5334;48.928;12.704;2022-08-19T08:34:17;22.70;99.90
10572;DHT22;5334;48.928;12.704;2022-08-19T08:36:45;22.70;99.90
10572;DHT22;5334;48.928;12.704;2022-08-19T08:39:13;22.70;99.90
10572;DHT22;5334;48.928;12.704;2022-08-19T08:42:12;22.70;99.90
10572;DHT22;5334;48.928;12.704;2022-08-19T08:44:54;22.60;99.90
10572;DHT22;5334;48.928;12.704;2022-08-19T08:47:23;22.60;99.90
10572;DHT22;5334;48.928;12.704;2022-08-19T08:50:05;22.70;99.90
10572;DHT22;5334;48.928;12.704;2022-08-19T08:52:39;22.80;99.90
10572;DHT22;5334;48.928;12.704;2022-08-19T08:55:12;23.00;99.90
10572;DHT22;5334;48.928;12.704;2022-08-19T09:00:39;23.10;99.90
10572;DHT22;5334;48.928;12.704;2022-08-19T09:03:05;23.10;99.90
10572;DHT22;5334;48.928;12.704;2022-08-19T09:11:52;23.50;99.90
10572;DHT22;5334;48.928;12.704;2022-08-19T09:16:46;24.00;99.90
10572;DHT22;5334;48.928;12.704;2022-08-19T09:19:11;24.10;99.90
10572;DHT22;5334;48.928;12.704;2022-08-19T09:21:37;24.20;99.90
10572;DHT22;5334;48.928;12.704;2022-08-19T09:24:04;24.20;99.90
10572;DHT22;5334;48.928;12.704;2022-08-19T09:26:31;24.20;99.90
10572;DHT22;5334;48.928;12.704;2022-08-19T09:28:58;24.30;99.90
10572;DHT22;5334;48.928;12.704;2022-08-19T09:31:27;24.40;99.90
10572;DHT22;5334;48.928;12.704;2022-08-19T09:33:53;24.60;99.90
10572;DHT22;5334;48.928;12.704;2022-08-19T09:36:23;24.80;99.90
10572;DHT22;5334;48.928;12.704;2022-08-19T09:38:50;25.10;99.90
10572;DHT22;5334;48.928;12.704;2022-08-19T09:41:21;25.20;99.90
10572;DHT22;5334;48.928;12.704;2022-08-19T09:43:50;25.10;99.90
10572;DHT22;5334;48.928;12.704;2022-08-19T09:46:22;25.00;99.90
10572;DHT22;5334;48.928;12.704;2022-08-19T09:48:49;24.80;99.90
10572;DHT22;5334;48.928;12.704;2022-08-19T09:51:21;24.60;99.90
10572;DHT22;5334;48.928;12.704;2022-08-19T09:53:48;24.60;99.90
10572;DHT22;5334;48.928;12.704;2022-08-19T09:56:18;24.50;99.90
10572;DHT22;5334;48.928;12.704;2022-08-19T09:58:44;24.40;99.90
10572;DHT22;5334;48.928;12.704;2022-08-19T10:01:17;24.40;99.90
10572;DHT22;5334;48.928;12.704;2022-08-19T10:03:48;24.50;99.90
10572;DHT22;5334;48.928;12.704;2022-08-19T10:06:14;24.50;99.90
10572;DHT22;5334;48.928;12.704;2022-08-19T10:08:40;24.60;99.90
10572;DHT22;5334;48.928;12.704;2022-08-19T10:11:06;24.80;99.90
10572;DHT22;5334;48.928;12.704;2022-08-19T10:13:32;24.80;99.90
10572;DHT22;5334;48.928;12.704;2022-08-19T10:16:12;24.70;99.90
10572;DHT22;5334;48.928;12.704;2022-08-19T10:18:38;24.80;99.90
10572;DHT22;5334;48.928;12.704;2022-08-19T10:21:13;24.80;99.90
10572;DHT22;5334;48.928;12.704;2022-08-19T10:23:41;25.00;99.90
10572;DHT22;5334;48.928;12.704;2022-08-19T10:26:12;24.90;99.90
10572;DHT22;5334;48.928;12.704;2022-08-19T10:28:38;25.10;99.90
10572;DHT22;5334;48.928;12.704;2022-08-19T10:31:12;25.20;99.90
10572;DHT22;5334;48.928;12.704;2022-08-19T10:33:38;25.40;99.90
10572;DHT22;5334;48.928;12.704;2022-08-19T10:36:11;25.40;99.90
10572;DHT22;5334;48.928;12.704;2022-08-19T10:38:37;25.20;99.90
10572;DHT22;5334;48.928;12.704;2022-08-19T10:41:14;25.20;99.90
10572;DHT22;5334;48.928;12.704;2022-08-19T10:43:41;25.20;99.90
10572;DHT22;5334;48.928;12.704;2022-08-19T10:46:12;25.40;99.90
10572;DHT22;5334;48.928;12.704;2022-08-19T10:48:38;25.40;99.90
10572;DHT22;5334;48.928;12.704;2022-08-19T10:51:05;25.50;99.90
10572;DHT22;5334;48.928;12.704;2022-08-19T10:53:50;25.60;99.90
10572;DHT22;5334;48.928;12.704;2022-08-19T10:56:16;25.90;99.90
10572;DHT22;5334;48.928;12.704;2022-08-19T10:59:01;26.00;99.90
10572;DHT22;5334;48.928;12.704;2022-08-19T11:01:28;26.10;99.90
10572;DHT22;5334;48.928;12.704;2022-08-19T11:03:55;26.30;99.90
10572;DHT22;5334;48.928;12.704;2022-08-19T11:06:23;26.60;99.90
10572;DHT22;5334;48.928;12.704;2022-08-19T11:08:51;26.70;99.90
10572;DHT22;5334;48.928;12.704;2022-08-19T11:11:16;26.70;99.90
10572;DHT22;5334;48.928;12.704;2022-08-19T11:13:43;27.30;99.90
10572;DHT22;5334;48.928;12.704;2022-08-19T11:18:37;28.40;99.90
10572;DHT22;5334;48.928;12.704;2022-08-19T11:23:36;28.10;99.90
10572;DHT22;5334;48.928;12.704;2022-08-19T11:26:02;27.90;99.90
10572;DHT22;5334;48.928;12.704;2022-08-19T11:28:28;28.00;99.90
10572;DHT22;5334;48.928;12.704;2022-08-19T11:30:54;28.20;99.90
10572;DHT22;5334;48.928;12.704;2022-08-19T11:33:20;28.40;99.90
10572;DHT22;5334;48.928;12.704;2022-08-19T11:35:45;28.80;99.90
10572;DHT22;5334;48.928;12.704;2022-08-19T11:38:11;28.90;99.90
10572;DHT22;5334;48.928;12.704;2022-08-19T11:40:37;29.00;99.90
10572;DHT22;5334;48.928;12.704;2022-08-19T11:43:03;29.50;99.90
10572;DHT22;5334;48.928;12.704;2022-08-19T11:45:30;29.60;99.90
10572;DHT22;5334;48.928;12.704;2022-08-19T11:47:56;29.40;99.90
10572;DHT22;5334;48.928;12.704;2022-08-19T11:50:22;29.70;99.90
10572;DHT22;5334;48.928;12.704;2022-08-19T11:52:48;29.50;99.90
10572;DHT22;5334;48.928;12.704;2022-08-19T11:55:15;29.40;99.90
10572;DHT22;5334;48.928;12.704;2022-08-19T11:57:41;29.10;99.90
10572;DHT22;5334;48.928;12.704;2022-08-19T12:00:09;28.90;99.90
10572;DHT22;5334;48.928;12.704;2022-08-19T12:02:37;28.50;99.90
10572;DHT22;5334;48.928;12.704;2022-08-19T12:05:03;28.00;99.90
10572;DHT22;5334;48.928;12.704;2022-08-19T12:07:29;27.60;99.90
10572;DHT22;5334;48.928;12.704;2022-08-19T12:09:58;27.50;99.90
10572;DHT22;5334;48.928;12.704;2022-08-19T12:12:24;27.30;99.90
10572;DHT22;5334;48.928;12.704;2022-08-19T12:14:50;27.40;99.90
10572;DHT22;5334;48.928;12.704;2022-08-19T12:17:23;27.30;99.90
10572;DHT22;5334;48.928;12.704;2022-08-19T12:19:48;27.30;99.90
10572;DHT22;5334;48.928;12.704;2022-08-19T12:22:14;27.20;99.90
10572;DHT22;5334;48.928;12.704;2022-08-19T12:24:40;27.00;99.90
10572;DHT22;5334;48.928;12.704;2022-08-19T12:27:05;27.20;99.90
10572;DHT22;5334;48.928;12.704;2022-08-19T12:29:32;27.30;99.90
10572;DHT22;5334;48.928;12.704;2022-08-19T12:31:59;27.30;99.90
10572;DHT22;5334;48.928;12.704;2022-08-19T12:34:28;27.40;99.90
10572;DHT22;5334;48.928;12.704;2022-08-19T12:36:57;27.60;99.90
10572;DHT22;5334;48.928;12.704;2022-08-19T12:39:23;27.50;99.90
10572;DHT22;5334;48.928;12.704;2022-08-19T12:41:49;27.30;99.90
10572;DHT22;5334;48.928;12.704;2022-08-19T12:44:15;27.20;99.90
10572;DHT22;5334;48.928;12.704;2022-08-19T12:46:42;27.00;99.90
10572;DHT22;5334;48.928;12.704;2022-08-19T12:49:07;26.90;99.90
10572;DHT22;5334;48.928;12.704;2022-08-19T12:51:33;27.10;99.90
10572;DHT22;5334;48.928;12.704;2022-08-19T12:53:59;27.30;99.90
10572;DHT22;5334;48.928;12.704;2022-08-19T12:56:25;27.60;99.90
10572;DHT22;5334;48.928;12.704;2022-08-19T12:58:51;27.40;99.90
10572;DHT22;5334;48.928;12.704;2022-08-19T13:01:18;27.20;99.90
10572;DHT22;5334;48.928;12.704;2022-08-19T13:03:45;26.90;99.90
10572;DHT22;5334;48.928;12.704;2022-08-19T13:06:12;26.80;99.90
10572;DHT22;5334;48.928;12.704;2022-08-19T13:08:38;26.60;99.90
10572;DHT22;5334;48.928;12.704;2022-08-19T13:11:12;26.60;99.90
10572;DHT22;5334;48.928;12.704;2022-08-19T13:13:41;26.60;99.90
10572;DHT22;5334;48.928;12.704;2022-08-19T13:16:09;26.50;99.90
10572;DHT22;5334;48.928;12.704;2022-08-19T13:18:35;26.30;99.90
10572;DHT22;5334;48.928;12.704;2022-08-19T13:21:06;26.10;99.90
10572;DHT22;5334;48.928;12.704;2022-08-19T13:23:33;26.00;99.90
10572;DHT22;5334;48.928;12.704;2022-08-19T13:26:01;26.00;99.90
10572;DHT22;5334;48.928;12.704;2022-08-19T13:28:28;26.00;99.90
10572;DHT22;5334;48.928;12.704;2022-08-19T13:31:18;25.90;99.90
10572;DHT22;5334;48.928;12.704;2022-08-19T13:34:04;26.10;99.90
10572;DHT22;5334;48.928;12.704;2022-08-19T13:36:32;26.20;99.90
10572;DHT22;5334;48.928;12.704;2022-08-19T13:38:58;26.30;99.90
10572;DHT22;5334;48.928;12.704;2022-08-19T13:41:24;26.30;99.90
10572;DHT22;5334;48.928;12.704;2022-08-19T13:43:50;26.20;99.90
10572;DHT22;5334;48.928;12.704;2022-08-19T13:46:15;26.00;99.90
10572;DHT22;5334;48.928;12.704;2022-08-19T13:48:41;25.90;99.90
10572;DHT22;5334;48.928;12.704;2022-08-19T13:51:08;26.00;99.90
10572;DHT22;5334;48.928;12.704;2022-08-19T13:53:38;26.30;99.90
10572;DHT22;5334;48.928;12.704;2022-08-19T13:56:09;27.40;99.90
10572;DHT22;5334;48.928;12.704;2022-08-19T13:58:36;28.50;99.90
10572;DHT22;5334;48.928;12.704;2022-08-19T14:01:04;29.00;99.90
10572;DHT22;5334;48.928;12.704;2022-08-19T14:03:30;29.40;99.90
10572;DHT22;5334;48.928;12.704;2022-08-19T14:05:56;29.40;99.90
10572;DHT22;5334;48.928;12.704;2022-08-19T14:08:23;28.90;99.90
10572;DHT22;5334;48.928;12.704;2022-08-19T14:10:49;29.00;99.90
10572;DHT22;5334;48.928;12.704;2022-08-19T14:13:18;29.40;99.90
10572;DHT22;5334;48.928;12.704;2022-08-19T14:15:44;29.80;99.90
10572;DHT22;5334;48.928;12.704;2022-08-19T14:18:10;30.30;99.90
10572;DHT22;5334;48.928;12.704;2022-08-19T14:20:36;30.50;99.30
10572;DHT22;5334;48.928;12.704;2022-08-19T14:23:02;30.70;99.10
10572;DHT22;5334;48.928;12.704;2022-08-19T14:25:30;31.00;98.30
10572;DHT22;5334;48.928;12.704;2022-08-19T14:27:56;30.90;98.10
10572;DHT22;5334;48.928;12.704;2022-08-19T14:30:26;30.80;97.90
10572;DHT22;5334;48.928;12.704;2022-08-19T14:32:53;30.50;98.50
10572;DHT22;5334;48.928;12.704;2022-08-19T14:35:20;30.20;98.60
10572;DHT22;5334;48.928;12.704;2022-08-19T14:37:48;29.80;98.10
10572;DHT22;5334;48.928;12.704;2022-08-19T14:40:18;29.30;98.70
10572;DHT22;5334;48.928;12.704;2022-08-19T14:42:48;28.90;99.30
10572;DHT22;5334;48.928;12.704;2022-08-19T14:45:14;29.20;99.70
10572;DHT22;5334;48.928;12.704;2022-08-19T14:47:39;29.90;99.20
10572;DHT22;5334;48.928;12.704;2022-08-19T14:50:10;29.80;98.50
10572;DHT22;5334;48.928;12.704;2022-08-19T14:52:36;29.30;98.80
10572;DHT22;5334;48.928;12.704;2022-08-19T14:55:03;29.00;99.20
10572;DHT22;5334;48.928;12.704;2022-08-19T14:57:29;28.80;99.30
10572;DHT22;5334;48.928;12.704;2022-08-19T14:59:54;28.70;99.70
10572;DHT22;5334;48.928;12.704;2022-08-19T15:02:20;29.00;99.90
10572;DHT22;5334;48.928;12.704;2022-08-19T15:04:46;29.20;99.70
10572;DHT22;5334;48.928;12.704;2022-08-19T15:07:12;29.80;99.30
10572;DHT22;5334;48.928;12.704;2022-08-19T15:09:38;30.20;98.30
10572;DHT22;5334;48.928;12.704;2022-08-19T15:12:04;30.20;98.50
10572;DHT22;5334;48.928;12.704;2022-08-19T15:14:30;30.10;98.10
10572;DHT22;5334;48.928;12.704;2022-08-19T15:17:01;29.90;98.40
10572;DHT22;5334;48.928;12.704;2022-08-19T15:19:28;29.90;98.50
10572;DHT22;5334;48.928;12.704;2022-08-19T15:21:54;29.80;98.50
10572;DHT22;5334;48.928;12.704;2022-08-19T15:24:20;29.30;98.50
10572;DHT22;5334;48.928;12.704;2022-08-19T15:26:46;29.10;99.20
10572;DHT22;5334;48.928;12.704;2022-08-19T15:29:12;29.00;99.10
10572;DHT22;5334;48.928;12.704;2022-08-19T15:31:41;28.80;99.10
10572;DHT22;5334;48.928;12.704;2022-08-19T15:34:06;29.00;99.20
10572;DHT22;5334;48.928;12.704;2022-08-19T15:36:32;29.10;99.20
10572;DHT22;5334;48.928;12.704;2022-08-19T15:38:59;29.00;98.90
10572;DHT22;5334;48.928;12.704;2022-08-19T15:41:28;28.70;99.40
10572;DHT22;5334;48.928;12.704;2022-08-19T15:44:24;28.70;99.40
10572;DHT22;5334;48.928;12.704;2022-08-19T15:46:50;28.60;98.90
10572;DHT22;5334;48.928;12.704;2022-08-19T15:49:17;28.40;99.30
10572;DHT22;5334;48.928;12.704;2022-08-19T15:51:46;28.20;99.70
10572;DHT22;5334;48.928;12.704;2022-08-19T15:54:15;27.60;99.90